sensor_id;sensor_type;location;lat;lon;timestamp;pressure;altitude;pressure_sealevel;temperature;humidity
83941;BME280;73976;68.386;23.636;2024-02-15T00:00:22;98012.47;;;-12.48;80.79
83941;BME280;73976;68.386;23.636;2024-02-15T00:02:53;98010.72;;;-12.46;81.28
83941;BME280;73976;68.386;23.636;2024-02-15T00:05:22;98009.25;;;-12.53;80.79
83941;BME280;73976;68.386;23.636;2024-02-15T00:07:50;98027.53;;;-12.42;80.75
83941;BME280;73976;68.386;23.636;2024-02-15T00:10:18;98012.56;;;-12.51;81.38
83941;BME280;73976;68.386;23.636;2024-02-15T00:12:49;98014.25;;;-12.50;81.38
83941;BME280;73976;68.386;23.636;2024-02-15T00:15:19;98016.53;;;-12.42;81.01
83941;BME280;73976;68.386;23.636;2024-02-15T00:17:47;97991.69;;;-12.60;80.82
83941;BME280;73976;68.386;23.636;2024-02-15T00:20:16;98011.69;;;-12.50;81.39
83941;BME280;73976;68.386;23.636;2024-02-15T00:22:45;98021.69;;;-12.44;80.79
83941;BME280;73976;68.386;23.636;2024-02-15T00:25:16;98007.38;;;-12.48;81.72
83941;BME280;73976;68.386;23.636;2024-02-15T00:27:44;98023.53;;;-12.49;81.17
83941;BME280;73976;68.386;23.636;2024-02-15T00:30:13;98029.97;;;-12.39;80.56
83941;BME280;73976;68.386;23.636;2024-02-15T00:32:42;98027.53;;;-12.42;80.90
83941;BME280;73976;68.386;23.636;2024-02-15T00:35:11;97989.22;;;-12.62;80.99
83941;BME280;73976;68.386;23.636;2024-02-15T00:37:40;98007.56;;;-12.54;80.74
83941;BME280;73976;68.386;23.636;2024-02-15T00:40:09;97997.59;;;-12.60;81.86
83941;BME280;73976;68.386;23.636;2024-02-15T00:42:38;98030.22;;;-12.46;80.57
83941;BME280;73976;68.386;23.636;2024-02-15T00:45:07;98007.75;;;-12.60;81.15
83941;BME280;73976;68.386;23.636;2024-02-15T00:47:37;98011.16;;;-12.59;81.43
83941;BME280;73976;68.386;23.636;2024-02-15T00:50:10;98003.44;;;-12.56;80.85
83941;BME280;73976;68.386;23.636;2024-02-15T00:52:39;98007.66;;;-12.57;81.67
83941;BME280;73976;68.386;23.636;2024-02-15T00:55:07;97989.31;;;-12.65;81.39
83941;BME280;73976;68.386;23.636;2024-02-15T00:57:36;98004.94;;;-12.51;81.04
83941;BME280;73976;68.386;23.636;2024-02-15T01:00:05;97981.28;;;-12.53;81.76
83941;BME280;73976;68.386;23.636;2024-02-15T01:02:34;97998.00;;;-12.46;81.76
83941;BME280;73976;68.386;23.636;2024-02-15T01:05:04;97993.50;;;-12.38;81.63
83941;BME280;73976;68.386;23.636;2024-02-15T01:07:32;97999.16;;;-12.30;80.80
83941;BME280;73976;68.386;23.636;2024-02-15T01:10:01;98000.88;;;-12.30;81.04
83941;BME280;73976;68.386;23.636;2024-02-15T01:12:31;97964.16;;;-12.48;81.16
83941;BME280;73976;68.386;23.636;2024-02-15T01:14:59;97973.59;;;-12.51;81.20
83941;BME280;73976;68.386;23.636;2024-02-15T01:17:28;97991.81;;;-12.39;81.14
83941;BME280;73976;68.386;23.636;2024-02-15T01:19:57;97994.28;;;-12.36;81.13
83941;BME280;73976;68.386;23.636;2024-02-15T01:22:25;98002.59;;;-12.31;81.11
83941;BME280;73976;68.386;23.636;2024-02-15T01:24:55;97980.94;;;-12.42;80.75
83941;BME280;73976;68.386;23.636;2024-02-15T01:27:25;98012.47;;;-12.22;81.47
83941;BME280;73976;68.386;23.636;2024-02-15T01:29:58;97996.81;;;-12.36;82.23
83941;BME280;73976;68.386;23.636;2024-02-15T01:32:26;97987.31;;;-12.31;81.73
83941;BME280;73976;68.386;23.636;2024-02-15T01:34:55;97998.16;;;-12.24;82.41
83941;BME280;73976;68.386;23.636;2024-02-15T01:37:23;97984.59;;;-12.25;81.66
83941;BME280;73976;68.386;23.636;2024-02-15T01:39:52;97994.75;;;-12.25;81.60
83941;BME280;73976;68.386;23.636;2024-02-15T01:42:20;97987.91;;;-12.23;82.34
83941;BME280;73976;68.386;23.636;2024-02-15T01:44:49;97977.84;;;-12.26;81.97
83941;BME280;73976;68.386;23.636;2024-02-15T01:47:18;97980.22;;;-12.21;82.16
83941;BME280;73976;68.386;23.636;2024-02-15T01:49:52;97982.72;;;-12.20;81.39
83941;BME280;73976;68.386;23.636;2024-02-15T01:52:21;97957.50;;;-12.26;81.56
83941;BME280;73976;68.386;23.636;2024-02-15T01:54:52;97979.09;;;-12.13;81.98
83941;BME280;73976;68.386;23.636;2024-02-15T01:57:21;98002.69;;;-12.08;81.73
83941;BME280;73976;68.386;23.636;2024-02-15T01:59:53;97974.19;;;-12.19;81.43
83941;BME280;73976;68.386;23.636;2024-02-15T02:02:25;97984.06;;;-12.10;81.53
83941;BME280;73976;68.386;23.636;2024-02-15T02:04:56;98008.28;;;-11.98;81.77
83941;BME280;73976;68.386;23.636;2024-02-15T02:07:24;97975.69;;;-12.13;82.40
83941;BME280;73976;68.386;23.636;2024-02-15T02:09:53;97998.25;;;-12.03;81.42
83941;BME280;73976;68.386;23.636;2024-02-15T02:12:21;97997.28;;;-11.99;82.63
83941;BME280;73976;68.386;23.636;2024-02-15T02:14:50;97985.41;;;-12.00;82.87
83941;BME280;73976;68.386;23.636;2024-02-15T02:17:18;97971.28;;;-12.08;81.99
83941;BME280;73976;68.386;23.636;2024-02-15T02:19:48;97965.38;;;-12.09;82.85
83941;BME280;73976;68.386;23.636;2024-02-15T02:22:20;97990.19;;;-11.91;82.94
83941;BME280;73976;68.386;23.636;2024-02-15T02:27:32;97976.91;;;-11.99;82.22
83941;BME280;73976;68.386;23.636;2024-02-15T02:30:03;97991.13;;;-11.93;82.67
83941;BME280;73976;68.386;23.636;2024-02-15T02:32:35;97995.03;;;-11.83;82.02
83941;BME280;73976;68.386;23.636;2024-02-15T02:35:04;97989.28;;;-11.88;82.63
83941;BME280;73976;68.386;23.636;2024-02-15T02:37:35;97965.75;;;-11.95;83.05
83941;BME280;73976;68.386;23.636;2024-02-15T02:40:05;98007.44;;;-11.74;82.76
83941;BME280;73976;68.386;23.636;2024-02-15T02:42:55;97985.84;;;-11.87;82.97
83941;BME280;73976;68.386;23.636;2024-02-15T02:45:24;98003.06;;;-11.70;82.04
83941;BME280;73976;68.386;23.636;2024-02-15T02:47:53;97988.13;;;-11.80;82.49
83941;BME280;73976;68.386;23.636;2024-02-15T02:50:22;97988.91;;;-11.77;82.50
83941;BME280;73976;68.386;23.636;2024-02-15T02:52:52;97974.53;;;-11.80;83.04
83941;BME280;73976;68.386;23.636;2024-02-15T02:55:20;97979.47;;;-11.76;82.37
83941;BME280;73976;68.386;23.636;2024-02-15T02:57:48;97966.22;;;-11.84;83.03
83941;BME280;73976;68.386;23.636;2024-02-15T03:00:18;97965.00;;;-11.73;83.13
83941;BME280;73976;68.386;23.636;2024-02-15T03:02:46;97946.06;;;-11.90;82.54
83941;BME280;73976;68.386;23.636;2024-02-15T03:05:15;97955.13;;;-11.83;82.76
83941;BME280;73976;68.386;23.636;2024-02-15T03:07:44;98000.00;;;-11.57;82.52
83941;BME280;73976;68.386;23.636;2024-02-15T03:10:12;97949.13;;;-11.82;83.18
83941;BME280;73976;68.386;23.636;2024-02-15T03:12:42;97955.13;;;-11.83;82.27
83941;BME280;73976;68.386;23.636;2024-02-15T03:15:16;97970.91;;;-11.73;83.14
83941;BME280;73976;68.386;23.636;2024-02-15T03:17:47;97999.06;;;-11.54;82.63
83941;BME280;73976;68.386;23.636;2024-02-15T03:20:17;97986.50;;;-11.59;82.20
83941;BME280;73976;68.386;23.636;2024-02-15T03:22:52;98005.84;;;-11.53;83.18
83941;BME280;73976;68.386;23.636;2024-02-15T03:25:21;97956.66;;;-11.79;82.65
83941;BME280;73976;68.386;23.636;2024-02-15T03:27:54;97976.81;;;-11.73;83.42
83941;BME280;73976;68.386;23.636;2024-02-15T03:30:28;98002.41;;;-11.52;83.59
83941;BME280;73976;68.386;23.636;2024-02-15T03:32:59;97993.22;;;-11.56;83.71
83941;BME280;73976;68.386;23.636;2024-02-15T03:35:28;97998.25;;;-11.55;83.29
83941;BME280;73976;68.386;23.636;2024-02-15T03:38:00;97991.72;;;-11.62;83.88
83941;BME280;73976;68.386;23.636;2024-02-15T03:40:29;97976.66;;;-11.68;83.05
83941;BME280;73976;68.386;23.636;2024-02-15T03:42:59;97976.66;;;-11.68;83.21
83941;BME280;73976;68.386;23.636;2024-02-15T03:45:27;97950.72;;;-11.77;84.00
83941;BME280;73976;68.386;23.636;2024-02-15T03:47:55;97984.13;;;-11.63;83.31
83941;BME280;73976;68.386;23.636;2024-02-15T03:50:24;97994.09;;;-11.57;83.51
83941;BME280;73976;68.386;23.636;2024-02-15T03:52:53;97984.69;;;-11.55;83.85
83941;BME280;73976;68.386;23.636;2024-02-15T03:55:21;97988.97;;;-11.57;83.29
83941;BME280;73976;68.386;23.636;2024-02-15T03:57:50;97974.00;;;-11.65;83.37
83941;BME280;73976;68.386;23.636;2024-02-15T04:00:19;97966.69;;;-11.74;82.90
83941;BME280;73976;68.386;23.636;2024-02-15T04:02:50;97979.16;;;-11.66;83.27
83941;BME280;73976;68.386;23.636;2024-02-15T04:05:18;97983.38;;;-11.65;83.28
83941;BME280;73976;68.386;23.636;2024-02-15T04:07:50;97993.97;;;-11.54;83.16
83941;BME280;73976;68.386;23.636;2024-02-15T04:10:18;97968.31;;;-11.71;83.69
83941;BME280;73976;68.386;23.636;2024-02-15T04:12:47;97971.63;;;-11.69;83.71
83941;BME280;73976;68.386;23.636;2024-02-15T04:15:15;97980.72;;;-11.62;84.00
83941;BME280;73976;68.386;23.636;2024-02-15T04:17:46;97978.19;;;-11.62;83.28
83941;BME280;73976;68.386;23.636;2024-02-15T04:20:14;97986.38;;;-11.56;82.93
83941;BME280;73976;68.386;23.636;2024-02-15T04:22:45;97975.63;;;-11.62;84.10
83941;BME280;73976;68.386;23.636;2024-02-15T04:25:16;97984.13;;;-11.63;83.93
83941;BME280;73976;68.386;23.636;2024-02-15T04:27:46;98002.13;;;-11.45;84.41
83941;BME280;73976;68.386;23.636;2024-02-15T04:30:15;98012.31;;;-11.45;83.67
83941;BME280;73976;68.386;23.636;2024-02-15T04:32:45;98003.84;;;-11.45;83.75
83941;BME280;73976;68.386;23.636;2024-02-15T04:35:15;97984.78;;;-11.58;84.02
83941;BME280;73976;68.386;23.636;2024-02-15T04:37:43;97980.72;;;-11.62;83.70
83941;BME280;73976;68.386;23.636;2024-02-15T04:40:11;98007.16;;;-11.43;82.92
83941;BME280;73976;68.386;23.636;2024-02-15T04:42:42;98005.00;;;-11.54;84.06
83941;BME280;73976;68.386;23.636;2024-02-15T04:45:15;97991.47;;;-11.56;83.49
83941;BME280;73976;68.386;23.636;2024-02-15T04:47:44;97970.91;;;-11.73;83.19
83941;BME280;73976;68.386;23.636;2024-02-15T04:50:15;97982.50;;;-11.64;83.30
83941;BME280;73976;68.386;23.636;2024-02-15T04:52:47;97999.16;;;-11.57;83.61
83941;BME280;73976;68.386;23.636;2024-02-15T04:55:18;98004.28;;;-11.57;83.76
83941;BME280;73976;68.386;23.636;2024-02-15T04:57:46;98000.19;;;-11.61;83.50
83941;BME280;73976;68.386;23.636;2024-02-15T05:00:17;98004.31;;;-11.59;83.57
83941;BME280;73976;68.386;23.636;2024-02-15T05:02:49;98009.59;;;-11.63;83.15
83941;BME280;73976;68.386;23.636;2024-02-15T05:05:19;98032.66;;;-11.43;84.09
83941;BME280;73976;68.386;23.636;2024-02-15T05:07:47;98024.47;;;-11.53;83.82
83941;BME280;73976;68.386;23.636;2024-02-15T05:10:17;98017.06;;;-11.59;83.67
83941;BME280;73976;68.386;23.636;2024-02-15T05:12:46;98023.50;;;-11.49;83.94
83941;BME280;73976;68.386;23.636;2024-02-15T05:15:19;98007.72;;;-11.58;83.09
83941;BME280;73976;68.386;23.636;2024-02-15T05:17:51;97996.00;;;-11.62;83.31
83941;BME280;73976;68.386;23.636;2024-02-15T05:20:23;97914.25;;;-12.03;84.22
83941;BME280;73976;68.386;23.636;2024-02-15T05:22:53;97914.38;;;-12.06;84.31
83941;BME280;73976;68.386;23.636;2024-02-15T05:25:22;97952.78;;;-11.89;83.75
83941;BME280;73976;68.386;23.636;2024-02-15T05:27:54;97928.44;;;-11.96;84.12
83941;BME280;73976;68.386;23.636;2024-02-15T05:30:27;98002.19;;;-11.46;83.52
83941;BME280;73976;68.386;23.636;2024-02-15T05:32:58;97969.03;;;-11.68;84.16
83941;BME280;73976;68.386;23.636;2024-02-15T05:35:26;97975.69;;;-11.64;83.24
83941;BME280;73976;68.386;23.636;2024-02-15T05:37:56;97978.09;;;-11.61;83.26
83941;BME280;73976;68.386;23.636;2024-02-15T05:40:24;98000.31;;;-11.41;83.65
83941;BME280;73976;68.386;23.636;2024-02-15T05:42:56;97973.81;;;-11.60;84.47
83941;BME280;73976;68.386;23.636;2024-02-15T05:47:54;97978.00;;;-11.58;83.79
83941;BME280;73976;68.386;23.636;2024-02-15T05:50:23;97968.81;;;-11.62;83.55
83941;BME280;73976;68.386;23.636;2024-02-15T05:52:52;98013.81;;;-11.39;83.60
83941;BME280;73976;68.386;23.636;2024-02-15T05:55:23;97977.25;;;-11.61;83.43
83941;BME280;73976;68.386;23.636;2024-02-15T05:57:54;97970.53;;;-11.62;83.45
83941;BME280;73976;68.386;23.636;2024-02-15T06:00:22;97972.00;;;-11.57;84.25
83941;BME280;73976;68.386;23.636;2024-02-15T06:02:51;97976.31;;;-11.59;83.52
83941;BME280;73976;68.386;23.636;2024-02-15T06:05:20;97987.22;;;-11.55;83.27
83941;BME280;73976;68.386;23.636;2024-02-15T06:07:50;97973.16;;;-11.64;83.32
83941;BME280;73976;68.386;23.636;2024-02-15T06:10:18;97968.50;;;-11.54;83.55
83941;BME280;73976;68.386;23.636;2024-02-15T06:12:47;97976.09;;;-11.53;83.18
83941;BME280;73976;68.386;23.636;2024-02-15T06:15:15;97966.06;;;-11.57;83.19
83941;BME280;73976;68.386;23.636;2024-02-15T06:17:46;98006.44;;;-11.47;83.63
83941;BME280;73976;68.386;23.636;2024-02-15T06:20:16;97980.59;;;-11.59;83.43
83941;BME280;73976;68.386;23.636;2024-02-15T06:22:47;98008.59;;;-11.36;83.51
83941;BME280;73976;68.386;23.636;2024-02-15T06:25:15;97966.41;;;-11.66;83.56
83941;BME280;73976;68.386;23.636;2024-02-15T06:27:52;97987.13;;;-11.52;83.05
83941;BME280;73976;68.386;23.636;2024-02-15T06:30:26;97992.94;;;-11.49;83.12
83941;BME280;73976;68.386;23.636;2024-02-15T06:33:13;98015.59;;;-11.41;83.53
83941;BME280;73976;68.386;23.636;2024-02-15T06:36:04;97987.00;;;-11.49;83.57
83941;BME280;73976;68.386;23.636;2024-02-15T06:38:51;97984.28;;;-11.45;83.23
83941;BME280;73976;68.386;23.636;2024-02-15T06:41:38;97979.41;;;-11.51;83.43
83941;BME280;73976;68.386;23.636;2024-02-15T06:44:06;97989.44;;;-11.46;83.58
83941;BME280;73976;68.386;23.636;2024-02-15T06:46:35;97982.91;;;-11.53;83.71
83941;BME280;73976;68.386;23.636;2024-02-15T06:49:03;97990.22;;;-11.44;83.17
83941;BME280;73976;68.386;23.636;2024-02-15T06:51:33;98004.41;;;-11.37;83.84
83941;BME280;73976;68.386;23.636;2024-02-15T06:54:02;97967.91;;;-11.61;83.21
83941;BME280;73976;68.386;23.636;2024-02-15T06:56:36;97993.75;;;-11.48;83.74
83941;BME280;73976;68.386;23.636;2024-02-15T06:59:06;97999.31;;;-11.37;82.85
83941;BME280;73976;68.386;23.636;2024-02-15T07:01:36;97979.41;;;-11.51;83.41
83941;BME280;73976;68.386;23.636;2024-02-15T07:04:06;97983.28;;;-11.41;83.08
83941;BME280;73976;68.386;23.636;2024-02-15T07:06:36;97999.31;;;-11.37;84.18
83941;BME280;73976;68.386;23.636;2024-02-15T07:09:05;98013.25;;;-11.24;84.08
83941;BME280;73976;68.386;23.636;2024-02-15T07:11:34;97997.66;;;-11.38;83.10
83941;BME280;73976;68.386;23.636;2024-02-15T07:14:03;98030.00;;;-11.17;83.37
83941;BME280;73976;68.386;23.636;2024-02-15T07:16:34;98029.94;;;-11.16;83.36
83941;BME280;73976;68.386;23.636;2024-02-15T07:19:02;98025.59;;;-11.14;83.65
83941;BME280;73976;68.386;23.636;2024-02-15T07:21:31;98004.00;;;-11.27;83.77
83941;BME280;73976;68.386;23.636;2024-02-15T07:24:00;97995.75;;;-11.33;83.09
83941;BME280;73976;68.386;23.636;2024-02-15T07:26:28;98004.84;;;-11.26;83.23
83941;BME280;73976;68.386;23.636;2024-02-15T07:28:56;98028.88;;;-11.10;83.19
83941;BME280;73976;68.386;23.636;2024-02-15T07:31:28;97997.25;;;-11.28;83.15
83941;BME280;73976;68.386;23.636;2024-02-15T07:33:57;98009.00;;;-11.24;82.90
83941;BME280;73976;68.386;23.636;2024-02-15T07:36:26;98018.00;;;-11.15;83.38
83941;BME280;73976;68.386;23.636;2024-02-15T07:38:55;98003.97;;;-11.25;83.17
83941;BME280;73976;68.386;23.636;2024-02-15T07:41:30;98003.84;;;-11.22;82.75
83941;BME280;73976;68.386;23.636;2024-02-15T07:44:02;97989.69;;;-11.29;83.34
83941;BME280;73976;68.386;23.636;2024-02-15T07:46:31;98043.66;;;-10.97;83.43
83941;BME280;73976;68.386;23.636;2024-02-15T07:49:01;98024.69;;;-11.11;83.06
83941;BME280;73976;68.386;23.636;2024-02-15T07:51:30;98025.44;;;-11.09;82.93
83941;BME280;73976;68.386;23.636;2024-02-15T07:53:59;98033.69;;;-11.03;82.96
83941;BME280;73976;68.386;23.636;2024-02-15T07:56:29;98026.72;;;-10.98;82.99
83941;BME280;73976;68.386;23.636;2024-02-15T07:58:57;98037.84;;;-11.00;83.10
83941;BME280;73976;68.386;23.636;2024-02-15T08:01:25;98034.19;;;-10.93;82.59
83941;BME280;73976;68.386;23.636;2024-02-15T08:03:54;98012.34;;;-11.00;82.04
83941;BME280;73976;68.386;23.636;2024-02-15T08:06:23;98040.44;;;-10.79;82.56
83941;BME280;73976;68.386;23.636;2024-02-15T08:08:57;98019.44;;;-10.85;82.86
83941;BME280;73976;68.386;23.636;2024-02-15T08:11:25;98028.47;;;-10.77;82.10
83941;BME280;73976;68.386;23.636;2024-02-15T08:13:54;98020.31;;;-10.86;81.98
83941;BME280;73976;68.386;23.636;2024-02-15T08:16:27;98016.00;;;-10.84;81.48
83941;BME280;73976;68.386;23.636;2024-02-15T08:18:55;98033.34;;;-10.71;82.25
83941;BME280;73976;68.386;23.636;2024-02-15T08:21:28;98017.44;;;-10.77;81.37
83941;BME280;73976;68.386;23.636;2024-02-15T08:23:58;98018.22;;;-10.75;81.67
83941;BME280;73976;68.386;23.636;2024-02-15T08:26:26;98034.81;;;-10.65;81.13
83941;BME280;73976;68.386;23.636;2024-02-15T08:28:55;98020.81;;;-10.77;81.13
83941;BME280;73976;68.386;23.636;2024-02-15T08:31:23;98026.38;;;-10.67;81.28
83941;BME280;73976;68.386;23.636;2024-02-15T08:33:52;98019.38;;;-10.62;81.70
83941;BME280;73976;68.386;23.636;2024-02-15T08:36:21;98036.00;;;-10.52;81.17
83941;BME280;73976;68.386;23.636;2024-02-15T08:38:50;98037.44;;;-10.45;81.80
83941;BME280;73976;68.386;23.636;2024-02-15T08:41:18;98048.34;;;-10.42;80.90
83941;BME280;73976;68.386;23.636;2024-02-15T08:43:48;98024.97;;;-10.53;81.50
83941;BME280;73976;68.386;23.636;2024-02-15T08:46:17;98030.88;;;-10.52;81.27
83941;BME280;73976;68.386;23.636;2024-02-15T08:48:45;98018.19;;;-10.54;81.14
83941;BME280;73976;68.386;23.636;2024-02-15T08:51:15;98050.47;;;-10.31;81.16
83941;BME280;73976;68.386;23.636;2024-02-15T08:53:46;98037.06;;;-10.36;81.75
83941;BME280;73976;68.386;23.636;2024-02-15T08:56:14;98031.97;;;-10.36;80.80
83941;BME280;73976;68.386;23.636;2024-02-15T08:58:43;98044.44;;;-10.29;81.09
83941;BME280;73976;68.386;23.636;2024-02-15T09:01:12;98032.53;;;-10.30;80.63
83941;BME280;73976;68.386;23.636;2024-02-15T09:03:41;98030.81;;;-10.29;81.20
83941;BME280;73976;68.386;23.636;2024-02-15T09:06:11;98032.38;;;-10.25;80.41
83941;BME280;73976;68.386;23.636;2024-02-15T09:08:39;98018.72;;;-10.24;80.45
83941;BME280;73976;68.386;23.636;2024-02-15T09:11:08;98048.22;;;-10.17;80.62
83941;BME280;73976;68.386;23.636;2024-02-15T09:13:40;98017.34;;;-10.33;80.68
83941;BME280;73976;68.386;23.636;2024-02-15T09:16:09;98037.88;;;-10.14;81.04
83941;BME280;73976;68.386;23.636;2024-02-15T09:18:40;98031.13;;;-10.15;80.51
83941;BME280;73976;68.386;23.636;2024-02-15T09:21:14;98016.09;;;-10.23;80.38
83941;BME280;73976;68.386;23.636;2024-02-15T09:23:43;98032.03;;;-10.16;80.88
83941;BME280;73976;68.386;23.636;2024-02-15T09:26:11;97968.66;;;-10.48;80.80
83941;BME280;73976;68.386;23.636;2024-02-15T09:28:40;98032.66;;;-10.11;80.11
83941;BME280;73976;68.386;23.636;2024-02-15T09:31:09;98029.22;;;-10.10;80.38
83941;BME280;73976;68.386;23.636;2024-02-15T09:33:41;98045.06;;;-10.04;80.69
83941;BME280;73976;68.386;23.636;2024-02-15T09:36:10;98042.66;;;-10.07;79.94
83941;BME280;73976;68.386;23.636;2024-02-15T09:38:40;98052.47;;;-9.98;80.38
83941;BME280;73976;68.386;23.636;2024-02-15T09:41:08;98040.03;;;-10.05;80.39
83941;BME280;73976;68.386;23.636;2024-02-15T09:43:38;98049.19;;;-10.00;80.27
83941;BME280;73976;68.386;23.636;2024-02-15T09:46:06;98022.50;;;-10.13;80.89
83941;BME280;73976;68.386;23.636;2024-02-15T09:48:35;98041.59;;;-10.01;81.17
83941;BME280;73976;68.386;23.636;2024-02-15T09:51:08;98042.97;;;-9.94;80.71
83941;BME280;73976;68.386;23.636;2024-02-15T09:53:40;98041.09;;;-9.89;81.33
83941;BME280;73976;68.386;23.636;2024-02-15T09:56:10;98036.53;;;-9.83;80.73
83941;BME280;73976;68.386;23.636;2024-02-15T09:58:39;98013.13;;;-9.92;80.68
83941;BME280;73976;68.386;23.636;2024-02-15T10:01:09;98035.47;;;-9.77;80.47
83941;BME280;73976;68.386;23.636;2024-02-15T10:03:39;98023.19;;;-9.89;80.30
83941;BME280;73976;68.386;23.636;2024-02-15T10:06:08;98042.28;;;-9.78;80.59
83941;BME280;73976;68.386;23.636;2024-02-15T10:08:37;98031.28;;;-9.80;80.13
83941;BME280;73976;68.386;23.636;2024-02-15T10:11:10;98052.00;;;-9.65;80.64
83941;BME280;73976;68.386;23.636;2024-02-15T10:13:39;98055.28;;;-9.62;80.17
83941;BME280;73976;68.386;23.636;2024-02-15T10:16:19;98056.00;;;-9.60;80.22
83941;BME280;73976;68.386;23.636;2024-02-15T10:18:52;97988.56;;;-9.96;80.98
83941;BME280;73976;68.386;23.636;2024-02-15T10:21:34;98048.41;;;-9.61;80.45
83941;BME280;73976;68.386;23.636;2024-02-15T10:24:07;98038.44;;;-9.68;80.17
83941;BME280;73976;68.386;23.636;2024-02-15T10:26:37;98049.91;;;-9.56;80.74
83941;BME280;73976;68.386;23.636;2024-02-15T10:29:10;98038.78;;;-9.55;80.53
83941;BME280;73976;68.386;23.636;2024-02-15T10:31:40;98048.47;;;-9.43;80.85
83941;BME280;73976;68.386;23.636;2024-02-15T10:34:23;98017.41;;;-9.54;79.87
83941;BME280;73976;68.386;23.636;2024-02-15T10:36:54;98050.09;;;-9.22;79.26
83941;BME280;73976;68.386;23.636;2024-02-15T10:39:26;98055.72;;;-9.14;79.73
83941;BME280;73976;68.386;23.636;2024-02-15T10:41:55;98034.38;;;-9.13;79.57
83941;BME280;73976;68.386;23.636;2024-02-15T10:44:25;98030.16;;;-9.14;79.59
83941;BME280;73976;68.386;23.636;2024-02-15T10:46:54;98035.94;;;-9.10;79.42
83941;BME280;73976;68.386;23.636;2024-02-15T10:49:24;98038.22;;;-9.04;79.01
83941;BME280;73976;68.386;23.636;2024-02-15T10:51:57;98065.28;;;-8.99;80.04
83941;BME280;73976;68.386;23.636;2024-02-15T10:57:17;98051.16;;;-9.07;80.11
83941;BME280;73976;68.386;23.636;2024-02-15T10:59:55;98060.31;;;-9.02;78.91
83941;BME280;73976;68.386;23.636;2024-02-15T11:02:38;98051.88;;;-9.04;80.13
83941;BME280;73976;68.386;23.636;2024-02-15T11:05:12;98050.34;;;-9.08;79.39
83941;BME280;73976;68.386;23.636;2024-02-15T11:07:43;98059.03;;;-9.12;80.09
83941;BME280;73976;68.386;23.636;2024-02-15T11:10:11;98069.75;;;-9.04;79.87
83941;BME280;73976;68.386;23.636;2024-02-15T11:12:45;98042.25;;;-9.17;80.15
83941;BME280;73976;68.386;23.636;2024-02-15T11:15:45;98068.59;;;-8.97;79.88
83941;BME280;73976;68.386;23.636;2024-02-15T11:18:44;98064.19;;;-8.93;79.36
83941;BME280;73976;68.386;23.636;2024-02-15T11:21:13;98066.53;;;-8.89;79.40
83941;BME280;73976;68.386;23.636;2024-02-15T11:23:42;98046.59;;;-9.01;79.08
83941;BME280;73976;68.386;23.636;2024-02-15T11:26:43;98063.19;;;-8.91;78.83
83941;BME280;73976;68.386;23.636;2024-02-15T11:40:28;98047.19;;;-8.94;78.66
83941;BME280;73976;68.386;23.636;2024-02-15T11:43:01;98056.09;;;-8.84;79.80
83941;BME280;73976;68.386;23.636;2024-02-15T11:45:30;98053.47;;;-8.83;79.64
83941;BME280;73976;68.386;23.636;2024-02-15T11:48:09;98044.28;;;-8.87;78.67
83941;BME280;73976;68.386;23.636;2024-02-15T11:50:41;98034.31;;;-8.93;79.86
83941;BME280;73976;68.386;23.636;2024-02-15T11:53:10;98037.69;;;-8.92;79.38
83941;BME280;73976;68.386;23.636;2024-02-15T11:55:40;98023.66;;;-9.02;80.45
83941;BME280;73976;68.386;23.636;2024-02-15T11:58:10;98036.25;;;-8.98;79.78
83941;BME280;73976;68.386;23.636;2024-02-15T12:00:39;98034.31;;;-8.93;80.71
83941;BME280;73976;68.386;23.636;2024-02-15T12:03:27;98027.78;;;-9.00;79.37
83941;BME280;73976;68.386;23.636;2024-02-15T12:06:30;98011.84;;;-9.05;80.76
83941;BME280;73976;68.386;23.636;2024-02-15T12:09:18;98039.09;;;-8.85;80.60
83941;BME280;73976;68.386;23.636;2024-02-15T12:12:09;98026.00;;;-8.98;80.67
83941;BME280;73976;68.386;23.636;2024-02-15T12:15:00;98021.81;;;-8.99;80.14
83941;BME280;73976;68.386;23.636;2024-02-15T12:17:47;98026.44;;;-8.88;79.75
83941;BME280;73976;68.386;23.636;2024-02-15T12:20:35;98021.25;;;-8.87;80.70
83941;BME280;73976;68.386;23.636;2024-02-15T12:23:03;98020.63;;;-8.92;80.80
83941;BME280;73976;68.386;23.636;2024-02-15T12:25:36;98023.19;;;-8.92;80.19
83941;BME280;73976;68.386;23.636;2024-02-15T12:28:06;98029.06;;;-8.90;79.61
83941;BME280;73976;68.386;23.636;2024-02-15T12:30:35;98033.19;;;-8.87;80.19
83941;BME280;73976;68.386;23.636;2024-02-15T12:33:12;98033.75;;;-8.81;81.00
83941;BME280;73976;68.386;23.636;2024-02-15T12:35:48;98036.84;;;-8.74;81.41
83941;BME280;73976;68.386;23.636;2024-02-15T12:38:18;98025.47;;;-8.86;81.58
83941;BME280;73976;68.386;23.636;2024-02-15T12:40:47;98035.41;;;-8.80;80.95
83941;BME280;73976;68.386;23.636;2024-02-15T12:43:16;98016.06;;;-8.85;80.75
83941;BME280;73976;68.386;23.636;2024-02-15T12:45:44;98023.53;;;-8.81;80.58
83941;BME280;73976;68.386;23.636;2024-02-15T12:48:13;98020.34;;;-8.86;79.89
83941;BME280;73976;68.386;23.636;2024-02-15T12:50:43;98035.41;;;-8.80;80.70
83941;BME280;73976;68.386;23.636;2024-02-15T12:53:12;98025.72;;;-8.92;81.54
83941;BME280;73976;68.386;23.636;2024-02-15T12:55:40;98047.28;;;-8.79;81.00
83941;BME280;73976;68.386;23.636;2024-02-15T12:58:13;98026.50;;;-8.90;80.60
83941;BME280;73976;68.386;23.636;2024-02-15T13:00:44;98027.25;;;-8.88;81.25
83941;BME280;73976;68.386;23.636;2024-02-15T13:03:12;98012.09;;;-8.92;81.06
83941;BME280;73976;68.386;23.636;2024-02-15T13:05:44;98007.06;;;-8.94;80.46
83941;BME280;73976;68.386;23.636;2024-02-15T13:08:14;98028.94;;;-8.87;80.52
83941;BME280;73976;68.386;23.636;2024-02-15T13:10:46;98013.34;;;-9.01;81.96
83941;BME280;73976;68.386;23.636;2024-02-15T13:13:14;98037.69;;;-8.92;81.70
83941;BME280;73976;68.386;23.636;2024-02-15T13:15:44;98027.78;;;-9.00;81.80
83941;BME280;73976;68.386;23.636;2024-02-15T13:18:15;98022.22;;;-9.08;82.10
83941;BME280;73976;68.386;23.636;2024-02-15T13:20:43;98020.41;;;-9.06;82.38